Time;durP1;ratioP1;P1;durP2;ratioP2;P2;SDS_P1;SDS_P2;PMS_P1;PMS_P2;Temp;Humidity;BMP_temperature;BMP_pressure;BME280_temperature;BME280_humidity;BME280_pressure;Samples;Min_cycle;Max_cycle;Signal;HPM_P1;HPM_P2
2022/06/28 00:02:20;;;;;;;;;;;;;;;;;;5034146;28;20004;-77
2022/06/28 00:04:46;;;;;;;;;;;;;;;;;;5033561;28;20036;-76
2022/06/28 00:07:13;;;;;;;;;;;;;;;;;;5033610;28;19973;-77
2022/06/28 00:09:39;;;;;;;;;;;;;;;;;;5033180;28;20387;-77
2022/06/28 00:12:06;;;;;;;;;;;;;;;;;;5033773;28;19966;-76
2022/06/28 00:17:16;;;;;;;;;;;;;;;;;;5033405;28;19931;-76
2022/06/28 00:19:44;;;;;;;;;;;;;;;;;;5032947;28;20315;-76
2022/06/28 00:22:11;;;;;;;;;;;;;;;;;;5033214;28;19972;-77
2022/06/28 00:24:38;;;;;;;;;;;;;;;;;;5033064;28;19999;-76
2022/06/28 00:27:04;;;;;;;;;;;;;;;;;;5033104;28;19931;-77
2022/06/28 00:29:31;;;;;;;;;;;;;;;;;;5032774;28;19975;-76
2022/06/28 00:31:57;;;;;;;;;;;;;;;;;;5033038;28;19983;-76
2022/06/28 00:34:24;;;;;;;;;;;;;;;;;;5033423;28;20011;-77
2022/06/28 00:36:52;;;;;;;;;;;;;;;;;;5032912;28;19925;-77
2022/06/28 00:39:18;;;;;;;;;;;;;;;;;;5032753;28;19931;-77
2022/06/28 00:41:45;;;;;;;;;;;;;;;;;;5032737;28;19948;-77
2022/06/28 00:44:12;;;;;;;;;;;;;;;;;;5033267;28;19925;-77
2022/06/28 00:46:39;;;;;;;;;;;;;;;;;;5032375;28;20020;-76
2022/06/28 00:49:05;;;;;;;;;;;;;;;;;;5032898;28;19968;-77
2022/06/28 00:51:32;;;;;;;;;;;;;;;;;;5032338;28;20412;-77
2022/06/28 00:54:00;;;;;;;;;;;;;;;;;;5032778;28;19925;-77
2022/06/28 00:56:27;;;;;;;;;;;;;;;;;;5032724;28;19932;-76
2022/06/28 00:58:55;;;;;;;;;;;;;;;;;;5035440;28;19983;-77
2022/06/28 01:01:22;;;;;;;;;;;;;;;;;;5052986;28;19974;-77
2022/06/28 01:03:48;;;;;;;;;;;;;;;;;;5052862;28;19984;-77
2022/06/28 01:06:16;;;;;;;;;;;;;;;;;;5051946;28;20155;-76
2022/06/28 01:08:45;;;;;;;;;;;;;;;;;;5053223;28;20307;-75
2022/06/28 01:11:22;;;;;;;;;;;;;;;;;;5054901;28;19925;-77
2022/06/28 01:13:49;;;;;;;;;;;;;;;;;;5054596;28;19924;-77
2022/06/28 01:16:16;;;;;;;;;;;;;;;;;;5054239;28;19960;-77
2022/06/28 01:18:42;;;;;;;;;;;;;;;;;;5053732;28;19925;-77
2022/06/28 01:21:09;;;;;;;;;;;;;;;;;;5052441;28;19931;-77
2022/06/28 01:23:37;;;;;;;;;;;;;;;;;;5052663;28;19925;-77
2022/06/28 01:26:04;;;;;;;;;;;;;;;;;;5052093;28;20119;-76
2022/06/28 01:28:32;;;;;;;;;;;;;;;;;;5052479;28;19925;-77
2022/06/28 01:30:58;;;;;;;;;;;;;;;;;;5051750;28;19971;-76
2022/06/28 01:33:25;;;;;;;;;;;;;;;;;;5052128;28;19972;-77
2022/06/28 01:35:52;;;;;;;;;;;;;;;;;;5052020;28;19925;-77
2022/06/28 01:38:18;;;;;;;;;;;;;;;;;;5052286;28;19925;-76
2022/06/28 01:40:46;;;;;;;;;;;;;;;;;;5051577;28;20078;-77
2022/06/28 01:43:14;;;;;;;;;;;;;;;;;;5052326;28;20011;-76
2022/06/28 01:45:40;;;;;;;;;;;;;;;;;;5052457;28;19924;-77
2022/06/28 01:48:07;;;;;;;;;;;;;;;;;;5052895;28;20297;-77
2022/06/28 01:50:33;;;;;;;;;;;;;;;;;;5052614;28;19929;-78
2022/06/28 01:53:00;;;;;;;;;;;;;;;;;;5054325;28;19971;-77
2022/06/28 01:55:27;;;;;;;;;;;;;;;;;;5053316;28;19925;-78
2022/06/28 01:57:55;;;;;;;;;;;;;;;;;;5055522;28;20153;-77
2022/06/28 02:00:21;;;;;;;;;;;;;;;;;;5041362;28;19960;-77
2022/06/28 02:02:48;;;;;;;;;;;;;;;;;;5036373;28;20015;-77
2022/06/28 02:05:14;;;;;;;;;;;;;;;;;;5036439;28;19929;-77
2022/06/28 02:07:46;;;;;;;;;;;;;;;;;;5036292;28;20031;-77
2022/06/28 02:10:13;;;;;;;;;;;;;;;;;;5036973;28;19925;-76
2022/06/28 02:12:39;;;;;;;;;;;;;;;;;;5037621;28;19966;-78
2022/06/28 02:15:07;;;;;;;;;;;;;;;;;;5046368;28;20377;-78
2022/06/28 02:17:34;;;;;;;;;;;;;;;;;;5046824;28;19959;-78
2022/06/28 02:20:01;;;;;;;;;;;;;;;;;;5042183;28;19948;-77
2022/06/28 02:22:28;;;;;;;;;;;;;;;;;;5037747;28;19932;-77
2022/06/28 02:24:54;;;;;;;;;;;;;;;;;;5035740;28;19976;-78
2022/06/28 02:27:20;;;;;;;;;;;;;;;;;;5035339;28;20406;-77
2022/06/28 02:29:47;;;;;;;;;;;;;;;;;;5035345;28;20397;-78
2022/06/28 02:32:15;;;;;;;;;;;;;;;;;;5035963;28;19932;-78
2022/06/28 02:40:22;;;;;;;;;;;;;;;;;;5038153;28;20435;-78
2022/06/28 02:42:49;;;;;;;;;;;;;;;;;;5038779;28;19925;-78
2022/06/28 02:45:15;;;;;;;;;;;;;;;;;;5038248;28;19933;-78
2022/06/28 02:47:44;;;;;;;;;;;;;;;;;;5036629;28;20396;-78
2022/06/28 02:50:10;;;;;;;;;;;;;;;;;;5034875;28;19925;-77
2022/06/28 02:52:37;;;;;;;;;;;;;;;;;;5035352;28;19972;-77
2022/06/28 02:55:03;;;;;;;;;;;;;;;;;;5035518;28;19979;-77
2022/06/28 02:57:30;;;;;;;;;;;;;;;;;;5035124;28;19975;-77
2022/06/28 02:59:56;;;;;;;;;;;;;;;;;;5046102;28;19982;-77
2022/06/28 03:02:23;;;;;;;;;;;;;;;;;;5055223;28;20284;-77
2022/06/28 03:04:51;;;;;;;;;;;;;;;;;;5055640;28;19925;-77
2022/06/28 03:07:17;;;;;;;;;;;;;;;;;;5055053;28;19954;-77
2022/06/28 03:09:44;;;;;;;;;;;;;;;;;;5054070;28;19994;-78
2022/06/28 03:12:10;;;;;;;;;;;;;;;;;;5054758;28;20015;-77
2022/06/28 03:14:37;;;;;;;;;;;;;;;;;;5054941;28;19925;-78
2022/06/28 03:17:03;;;;;;;;;;;;;;;;;;5055261;28;20007;-77
2022/06/28 03:19:30;;;;;;;;;;;;;;;;;;5054656;28;19925;-78
2022/06/28 03:21:58;;;;;;;;;;;;;;;;;;5055586;28;19948;-77
2022/06/28 03:24:24;;;;;;;;;;;;;;;;;;5054771;28;19967;-77
2022/06/28 03:26:51;;;;;;;;;;;;;;;;;;5054345;28;20378;-77
2022/06/28 03:29:18;;;;;;;;;;;;;;;;;;5054371;28;20406;-76
2022/06/28 03:31:44;;;;;;;;;;;;;;;;;;5054622;28;19925;-77
2022/06/28 03:34:11;;;;;;;;;;;;;;;;;;5056527;28;19952;-77
2022/06/28 03:36:37;;;;;;;;;;;;;;;;;;5058271;28;19931;-77
2022/06/28 03:39:05;;;;;;;;;;;;;;;;;;5061903;28;20346;-77
2022/06/28 03:41:32;;;;;;;;;;;;;;;;;;5064727;28;19925;-77
2022/06/28 03:43:58;;;;;;;;;;;;;;;;;;5073501;28;19947;-77
2022/06/28 03:46:25;;;;;;;;;;;;;;;;;;5061943;28;19935;-77
2022/06/28 03:48:51;;;;;;;;;;;;;;;;;;5058591;28;19955;-77
2022/06/28 03:51:18;;;;;;;;;;;;;;;;;;5056290;28;19971;-77
2022/06/28 03:53:44;;;;;;;;;;;;;;;;;;5055095;28;19956;-76
2022/06/28 03:56:12;;;;;;;;;;;;;;;;;;5054469;28;19964;-78
2022/06/28 03:58:38;;;;;;;;;;;;;;;;;;5053711;28;19960;-78
2022/06/28 04:01:05;;;;;;;;;;;;;;;;;;5033616;28;19972;-78
2022/06/28 04:03:32;;;;;;;;;;;;;;;;;;5034446;28;20400;-77
2022/06/28 04:05:58;;;;;;;;;;;;;;;;;;5033222;28;20028;-77
2022/06/28 04:08:25;;;;;;;;;;;;;;;;;;5033042;28;19972;-77
2022/06/28 04:11:13;;;;;;;;;;;;;;;;;;5033093;28;20046;-77
2022/06/28 04:13:40;;;;;;;;;;;;;;;;;;5032660;28;19925;-76
2022/06/28 04:16:06;;;;;;;;;;;;;;;;;;5033669;28;20300;-77
2022/06/28 04:18:33;;;;;;;;;;;;;;;;;;5033505;28;19926;-77
2022/06/28 04:20:59;;;;;;;;;;;;;;;;;;5032474;28;19968;-76
2022/06/28 04:23:26;;;;;;;;;;;;;;;;;;5033349;28;20010;-77
2022/06/28 04:25:52;;;;;;;;;;;;;;;;;;5032947;28;20024;-77
2022/06/28 04:28:19;;;;;;;;;;;;;;;;;;5033061;28;19925;-77
2022/06/28 04:30:47;;;;;;;;;;;;;;;;;;5033234;28;20020;-77
2022/06/28 04:33:13;;;;;;;;;;;;;;;;;;5033362;28;19931;-77
2022/06/28 04:35:39;;;;;;;;;;;;;;;;;;5032986;28;20016;-77
2022/06/28 04:38:06;;;;;;;;;;;;;;;;;;5033641;28;20020;-78
2022/06/28 04:40:32;;;;;;;;;;;;;;;;;;5037228;28;19925;-79
2022/06/28 04:42:59;;;;;;;;;;;;;;;;;;5034748;28;20019;-78
2022/06/28 04:45:25;;;;;;;;;;;;;;;;;;5034251;28;19987;-77
2022/06/28 04:47:53;;;;;;;;;;;;;;;;;;5033401;28;20295;-77
2022/06/28 04:50:20;;;;;;;;;;;;;;;;;;5037472;28;20044;-77
2022/06/28 04:52:47;;;;;;;;;;;;;;;;;;5045501;28;19925;-76
2022/06/28 04:55:14;;;;;;;;;;;;;;;;;;5045468;28;19925;-77
2022/06/28 04:57:40;;;;;;;;;;;;;;;;;;5040737;28;20360;-78
2022/06/28 05:00:07;;;;;;;;;;;;;;;;;;5048918;28;19925;-77
2022/06/28 05:02:36;;;;;;;;;;;;;;;;;;5052952;22;20437;-63
2022/06/28 05:05:04;;;;;;;;;;;;;;;;;;5017872;28;19926;-63
2022/06/28 05:07:32;;;;;;;;;;;;;;;;;;5018148;28;19929;-63
2022/06/28 05:09:58;;;;;;;;;;;;;;;;;;5017886;28;19925;-63
2022/06/28 05:12:25;;;;;;;;;;;;;;;;;;5029420;28;19925;-63
2022/06/28 05:14:51;;;;;;;;;;;;;;;;;;5038554;28;20524;-63
2022/06/28 05:17:18;;;;;;;;;;;;;;;;;;5038283;28;19979;-63
2022/06/28 05:19:45;;;;;;;;;;;;;;;;;;5038052;28;19926;-63
2022/06/28 05:22:14;;;;;;;;;;;;;;;;;;5039367;28;19925;-63
2022/06/28 05:24:40;;;;;;;;;;;;;;;;;;5039493;28;19955;-63
2022/06/28 05:27:07;;;;;;;;;;;;;;;;;;5039046;28;19929;-63
2022/06/28 05:29:34;;;;;;;;;;;;;;;;;;5038033;28;20017;-63
2022/06/28 05:32:00;;;;;;;;;;;;;;;;;;5038571;28;20016;-63
2022/06/28 05:34:27;;;;;;;;;;;;;;;;;;5038020;28;19929;-63
2022/06/28 05:36:54;;;;;;;;;;;;;;;;;;5038791;28;20393;-63
2022/06/28 05:39:22;;;;;;;;;;;;;;;;;;5038406;28;19948;-63
2022/06/28 05:41:49;;;;;;;;;;;;;;;;;;5038347;28;19925;-63
2022/06/28 05:44:16;;;;;;;;;;;;;;;;;;5038946;28;19979;-63
2022/06/28 05:46:43;;;;;;;;;;;;;;;;;;5038583;28;19949;-63
2022/06/28 05:49:11;;;;;;;;;;;;;;;;;;5037361;28;19925;-63
2022/06/28 05:51:37;;;;;;;;;;;;;;;;;;5037424;28;19948;-64
2022/06/28 05:54:04;;;;;;;;;;;;;;;;;;5036915;28;19929;-63
2022/06/28 05:56:35;;;;;;;;;;;;;;;;;;5037556;28;19950;-63
2022/06/28 05:59:04;;;;;;;;;;;;;;;;;;5037297;28;19925;-63
2022/06/28 06:01:30;;;;;;;;;;;;;;;;;;5036624;28;19925;-63
2022/06/28 06:03:57;;;;;;;;;;;;;;;;;;5038213;28;19926;-63
2022/06/28 06:06:24;;;;;;;;;;;;;;;;;;5037731;28;20336;-63
2022/06/28 06:08:52;;;;;;;;;;;;;;;;;;5038605;28;19925;-63
2022/06/28 06:11:19;;;;;;;;;;;;;;;;;;5036804;28;19925;-63
2022/06/28 06:13:47;;;;;;;;;;;;;;;;;;5036866;28;19929;-63
2022/06/28 06:16:13;;;;;;;;;;;;;;;;;;5037580;28;20217;-63
2022/06/28 06:18:40;;;;;;;;;;;;;;;;;;5038505;28;19929;-63
2022/06/28 06:21:06;;;;;;;;;;;;;;;;;;5038139;28;19925;-63
2022/06/28 06:23:34;;;;;;;;;;;;;;;;;;5038792;28;19929;-63
2022/06/28 06:26:01;;;;;;;;;;;;;;;;;;5038847;28;19933;-63
2022/06/28 06:28:28;;;;;;;;;;;;;;;;;;5039274;28;19925;-63
2022/06/28 06:30:56;;;;;;;;;;;;;;;;;;5038299;28;19936;-63
2022/06/28 06:33:23;;;;;;;;;;;;;;;;;;5038029;28;19936;-63
2022/06/28 06:35:50;;;;;;;;;;;;;;;;;;5038507;28;19964;-63
2022/06/28 06:38:16;;;;;;;;;;;;;;;;;;5037351;28;19975;-63
2022/06/28 06:40:43;;;;;;;;;;;;;;;;;;5037454;28;19926;-63
2022/06/28 06:43:09;;;;;;;;;;;;;;;;;;5038789;28;19932;-63
2022/06/28 06:45:36;;;;;;;;;;;;;;;;;;5039637;28;20377;-63
2022/06/28 06:48:04;;;;;;;;;;;;;;;;;;5041157;28;20377;-63
2022/06/28 06:50:30;;;;;;;;;;;;;;;;;;5041313;28;19932;-62
2022/06/28 06:52:57;;;;;;;;;;;;;;;;;;5041570;28;19940;-63
2022/06/28 06:55:24;;;;;;;;;;;;;;;;;;5041039;28;20412;-63
2022/06/28 06:57:51;;;;;;;;;;;;;;;;;;5041315;28;19925;-63
2022/06/28 07:00:18;;;;;;;;;;;;;;;;;;5040998;28;20313;-63
2022/06/28 07:02:45;;;;;;;;;;;;;;;;;;5041117;28;19960;-63
2022/06/28 07:05:13;;;;;;;;;;;;;;;;;;5042235;28;20324;-63
2022/06/28 07:07:40;;;;;;;;;;;;;;;;;;5041014;28;19978;-63
2022/06/28 07:10:07;;;;;;;;;;;;;;;;;;5041830;28;19925;-63
2022/06/28 07:12:33;;;;;;;;;;;;;;;;;;5041542;28;19933;-63
2022/06/28 07:15:00;;;;;;;;;;;;;;;;;;5041436;28;19932;-63
2022/06/28 07:17:26;;;;;;;;;;;;;;;;;;5036876;28;19971;-64
2022/06/28 07:19:53;;;;;;;;;;;;;;;;;;5037473;28;19925;-63
2022/06/28 07:22:22;;;;;;;;;;;;;;;;;;5038281;28;19936;-63
2022/06/28 07:24:49;;;;;;;;;;;;;;;;;;5038917;28;20021;-63
2022/06/28 07:27:16;;;;;;;;;;;;;;;;;;5037878;28;19933;-63
2022/06/28 07:29:42;;;;;;;;;;;;;;;;;;5038180;28;19933;-63
2022/06/28 07:32:09;;;;;;;;;;;;;;;;;;5038210;28;19925;-63
2022/06/28 07:34:36;;;;;;;;;;;;;;;;;;5038323;28;19926;-63
2022/06/28 07:37:02;;;;;;;;;;;;;;;;;;5038219;28;19932;-63
2022/06/28 07:39:30;;;;;;;;;;;;;;;;;;5038004;28;19979;-63
2022/06/28 07:41:57;;;;;;;;;;;;;;;;;;5038121;28;20013;-62
2022/06/28 07:44:26;;;;;;;;;;;;;;;;;;5037496;28;19925;-63
2022/06/28 07:46:53;;;;;;;;;;;;;;;;;;5038553;28;19956;-64
2022/06/28 07:49:20;;;;;;;;;;;;;;;;;;5038721;28;20426;-63
2022/06/28 07:54:36;;;;;;;;;;;;;;;;;;5038443;28;20048;-63
2022/06/28 07:57:02;;;;;;;;;;;;;;;;;;5038264;28;19982;-63
2022/06/28 07:59:29;;;;;;;;;;;;;;;;;;5038137;28;20412;-62
2022/06/28 08:01:55;;;;;;;;;;;;;;;;;;5038447;28;19937;-63
2022/06/28 08:04:22;;;;;;;;;;;;;;;;;;5039126;28;19925;-63
2022/06/28 08:06:48;;;;;;;;;;;;;;;;;;5038137;28;20020;-62
2022/06/28 08:09:15;;;;;;;;;;;;;;;;;;5039414;28;19929;-63
2022/06/28 08:11:43;;;;;;;;;;;;;;;;;;5038943;28;19929;-63
2022/06/28 08:14:12;;;;;;;;;;;;;;;;;;5038828;28;19929;-63
2022/06/28 08:16:38;;;;;;;;;;;;;;;;;;5038411;28;19952;-62
2022/06/28 08:19:05;;;;;;;;;;;;;;;;;;5038784;28;19925;-62
2022/06/28 08:21:32;;;;;;;;;;;;;;;;;;5038122;28;20024;-62
2022/06/28 08:23:58;;;;;;;;;;;;;;;;;;5038793;28;19967;-63
2022/06/28 08:26:25;;;;;;;;;;;;;;;;;;5037931;28;19936;-63
2022/06/28 08:28:53;;;;;;;;;;;;;;;;;;5038459;28;19925;-63
2022/06/28 08:31:19;;;;;;;;;;;;;;;;;;5037188;28;19929;-63
2022/06/28 08:33:46;;;;;;;;;;;;;;;;;;5038106;28;19929;-63
2022/06/28 08:36:13;;;;;;;;;;;;;;;;;;5038301;28;19928;-63
2022/06/28 08:38:39;;;;;;;;;;;;;;;;;;5038732;28;19939;-63
2022/06/28 08:41:06;;;;;;;;;;;;;;;;;;5037691;28;19963;-63
2022/06/28 08:43:33;;;;;;;;;;;;;;;;;;5037984;28;19925;-63
2022/06/28 08:46:02;;;;;;;;;;;;;;;;;;5037580;28;20397;-63
2022/06/28 08:48:31;;;;;;;;;;;;;;;;;;5037740;28;19924;-63
2022/06/28 08:50:59;;;;;;;;;;;;;;;;;;5037339;28;19929;-63
2022/06/28 08:53:25;;;;;;;;;;;;;;;;;;5037033;28;20321;-63
2022/06/28 08:55:52;;;;;;;;;;;;;;;;;;5037028;28;19925;-63
2022/06/28 08:58:19;;;;;;;;;;;;;;;;;;5038348;28;19929;-63
2022/06/28 09:00:46;;;;;;;;;;;;;;;;;;5037155;28;19929;-63
2022/06/28 09:03:15;;;;;;;;;;;;;;;;;;5037692;28;19932;-63
2022/06/28 09:05:41;;;;;;;;;;;;;;;;;;5038281;28;19979;-62
2022/06/28 09:08:08;;;;;;;;;;;;;;;;;;5037722;28;19929;-62
2022/06/28 09:10:34;;;;;;;;;;;;;;;;;;5037046;28;20287;-62
2022/06/28 09:13:05;;;;;;;;;;;;;;;;;;5037439;28;20337;-62
2022/06/28 09:15:45;;;;;;;;;;;;;;;;;;5036759;28;20449;-63
2022/06/28 09:18:12;;;;;;;;;;;;;;;;;;5036905;28;20166;-63
2022/06/28 09:20:40;;;;;;;;;;;;;;;;;;5036755;28;20322;-63
2022/06/28 09:23:20;;;;;;;;;;;;;;;;;;5036524;28;19944;-63
2022/06/28 09:25:47;;;;;;;;;;;;;;;;;;5035842;28;20381;-62
2022/06/28 09:28:22;;;;;;;;;;;;;;;;;;5036255;28;19925;-62
2022/06/28 09:30:49;;;;;;;;;;;;;;;;;;5036090;28;19926;-63
2022/06/28 09:33:25;;;;;;;;;;;;;;;;;;5036245;28;19971;-63
2022/06/28 09:35:53;;;;;;;;;;;;;;;;;;5035895;28;19925;-63
2022/06/28 09:38:30;;;;;;;;;;;;;;;;;;5037171;28;19925;-63
2022/06/28 09:40:57;;;;;;;;;;;;;;;;;;5036125;28;20002;-63
2022/06/28 09:43:30;;;;;;;;;;;;;;;;;;5036633;28;20194;-63
2022/06/28 09:45:57;;;;;;;;;;;;;;;;;;5036481;28;19926;-63
2022/06/28 09:48:24;;;;;;;;;;;;;;;;;;5035536;28;19925;-63
2022/06/28 09:50:57;;;;;;;;;;;;;;;;;;5036026;28;19932;-63
2022/06/28 09:53:26;;;;;;;;;;;;;;;;;;5036181;28;20315;-63
2022/06/28 09:55:53;;;;;;;;;;;;;;;;;;5035648;28;19932;-63
2022/06/28 09:58:20;;;;;;;;;;;;;;;;;;5036120;28;20413;-63
2022/06/28 10:00:47;;;;;;;;;;;;;;;;;;5035547;28;19979;-63
2022/06/28 10:03:13;;;;;;;;;;;;;;;;;;5035819;28;20432;-63
2022/06/28 10:05:40;;;;;;;;;;;;;;;;;;5035267;28;19928;-63
2022/06/28 10:08:08;;;;;;;;;;;;;;;;;;5036755;28;20039;-63
2022/06/28 10:10:37;;;;;;;;;;;;;;;;;;5036486;28;19976;-62
2022/06/28 10:15:51;;;;;;;;;;;;;;;;;;5036874;28;19940;-63
2022/06/28 10:18:20;;;;;;;;;;;;;;;;;;5036167;28;19936;-63
2022/06/28 10:20:47;;;;;;;;;;;;;;;;;;5040454;28;19929;-63
2022/06/28 10:23:28;;;;;;;;;;;;;;;;;;5037730;28;19932;-65
2022/06/28 10:26:01;;;;;;;;;;;;;;;;;;5035954;28;20214;-68
2022/06/28 10:28:29;;;;;;;;;;;;;;;;;;5035644;28;19925;-65
2022/06/28 10:31:10;;;;;;;;;;;;;;;;;;5035433;28;19983;-69
2022/06/28 10:33:41;;;;;;;;;;;;;;;;;;5037308;28;19932;-63
2022/06/28 10:36:14;;;;;;;;;;;;;;;;;;5038391;28;20585;-59
2022/06/28 10:39:06;;;;;;;;;;;;;;;;;;5035986;28;19925;-61
2022/06/28 10:41:36;;;;;;;;;;;;;;;;;;5036294;28;20404;-61
2022/06/28 10:44:07;;;;;;;;;;;;;;;;;;5036778;28;20369;-59
2022/06/28 10:46:33;;;;;;;;;;;;;;;;;;5036195;28;19975;-61
2022/06/28 10:49:06;;;;;;;;;;;;;;;;;;5038575;28;19933;-63
2022/06/28 10:51:33;;;;;;;;;;;;;;;;;;5039064;28;19925;-63
2022/06/28 10:54:04;;;;;;;;;;;;;;;;;;5038834;28;19925;-62
2022/06/28 10:56:31;;;;;;;;;;;;;;;;;;5038814;28;19928;-62
2022/06/28 10:58:58;;;;;;;;;;;;;;;;;;5038340;28;19987;-62
2022/06/28 11:01:43;;;;;;;;;;;;;;;;;;5038565;28;20230;-62
2022/06/28 11:04:11;;;;;;;;;;;;;;;;;;5044157;22;19968;-65
2022/06/28 11:06:40;;;;;;;;;;;;;;;;;;5033303;28;19968;-65
2022/06/28 11:09:09;;;;;;;;;;;;;;;;;;5033196;28;20417;-64
2022/06/28 11:11:36;;;;;;;;;;;;;;;;;;5032724;28;19979;-66
2022/06/28 11:14:21;;;;;;;;;;;;;;;;;;5032764;28;19925;-64
2022/06/28 11:16:48;;;;;;;;;;;;;;;;;;5033058;28;19987;-63
2022/06/28 11:19:15;;;;;;;;;;;;;;;;;;5032945;28;19936;-64
2022/06/28 11:21:42;;;;;;;;;;;;;;;;;;5032919;28;20361;-63
2022/06/28 11:24:10;;;;;;;;;;;;;;;;;;5032513;28;19926;-64
2022/06/28 11:29:30;;;;;;;;;;;;;;;;;;4996661;28;19926;-64
2022/06/28 11:31:56;;;;;;;;;;;;;;;;;;5031482;28;19925;-65
2022/06/28 11:34:24;;;;;;;;;;;;;;;;;;5032508;28;19925;-64
2022/06/28 11:36:50;;;;;;;;;;;;;;;;;;5033053;28;20278;-63
2022/06/28 11:39:19;;;;;;;;;;;;;;;;;;5032548;28;19925;-64
2022/06/28 11:41:48;;;;;;;;;;;;;;;;;;5032787;28;19929;-65
2022/06/28 11:44:14;;;;;;;;;;;;;;;;;;5032558;28;19936;-64
2022/06/28 11:46:41;;;;;;;;;;;;;;;;;;5032741;28;20309;-65
2022/06/28 11:49:08;;;;;;;;;;;;;;;;;;5032030;28;19925;-65
2022/06/28 11:51:35;;;;;;;;;;;;;;;;;;5032414;28;20001;-65
2022/06/28 11:54:06;;;;;;;;;;;;;;;;;;5032360;28;19925;-65
2022/06/28 11:56:43;;;;;;;;;;;;;;;;;;5032147;28;19940;-65
2022/06/28 11:59:10;;;;;;;;;;;;;;;;;;5032284;28;19925;-64
2022/06/28 12:01:38;;;;;;;;;;;;;;;;;;5031964;28;19925;-65
2022/06/28 12:04:06;;;;;;;;;;;;;;;;;;5032124;28;19929;-65
2022/06/28 12:06:33;;;;;;;;;;;;;;;;;;5032097;28;19925;-66
2022/06/28 12:09:01;;;;;;;;;;;;;;;;;;5031434;28;19925;-62
2022/06/28 12:11:28;;;;;;;;;;;;;;;;;;5032058;28;20356;-64
2022/06/28 12:13:57;;;;;;;;;;;;;;;;;;5031750;28;20386;-64
2022/06/28 12:16:24;;;;;;;;;;;;;;;;;;5031788;28;19925;-64
2022/06/28 12:18:53;;;;;;;;;;;;;;;;;;5032086;28;20206;-65
2022/06/28 12:21:20;;;;;;;;;;;;;;;;;;5031656;28;19936;-64
2022/06/28 12:23:48;;;;;;;;;;;;;;;;;;5031755;28;19929;-65
2022/06/28 12:26:14;;;;;;;;;;;;;;;;;;5031694;28;19929;-65
2022/06/28 12:28:41;;;;;;;;;;;;;;;;;;5031382;28;19936;-63
2022/06/28 12:31:09;;;;;;;;;;;;;;;;;;5031617;28;19975;-66
2022/06/28 12:33:35;;;;;;;;;;;;;;;;;;5031659;28;19960;-64
2022/06/28 12:36:02;;;;;;;;;;;;;;;;;;5031617;28;19925;-64
2022/06/28 12:38:29;;;;;;;;;;;;;;;;;;5031428;28;19925;-64
2022/06/28 12:40:56;;;;;;;;;;;;;;;;;;5031462;28;19929;-65
2022/06/28 12:43:22;;;;;;;;;;;;;;;;;;5031422;28;20386;-64
2022/06/28 12:45:49;;;;;;;;;;;;;;;;;;5027913;28;20283;-65
2022/06/28 12:48:17;;;;;;;;;;;;;;;;;;5011991;28;19937;-65
2022/06/28 12:50:43;;;;;;;;;;;;;;;;;;5010948;28;19925;-65
2022/06/28 12:53:10;;;;;;;;;;;;;;;;;;5011414;28;20329;-65
2022/06/28 12:55:37;;;;;;;;;;;;;;;;;;5011369;28;20626;-64
2022/06/28 12:58:03;;;;;;;;;;;;;;;;;;5011251;28;20478;-64
2022/06/28 13:00:30;;;;;;;;;;;;;;;;;;5011544;28;20334;-65
2022/06/28 13:02:57;;;;;;;;;;;;;;;;;;5011018;28;19933;-66
2022/06/28 13:05:25;;;;;;;;;;;;;;;;;;5010995;28;19976;-64
2022/06/28 13:07:53;;;;;;;;;;;;;;;;;;5011245;28;19925;-62
2022/06/28 13:10:20;;;;;;;;;;;;;;;;;;5011472;28;19960;-63
2022/06/28 13:12:46;;;;;;;;;;;;;;;;;;5011477;28;19952;-65
2022/06/28 13:15:13;;;;;;;;;;;;;;;;;;5011245;28;20012;-66
2022/06/28 13:17:39;;;;;;;;;;;;;;;;;;5010799;28;20040;-64
2022/06/28 13:20:07;;;;;;;;;;;;;;;;;;5010816;28;20437;-64
2022/06/28 13:22:35;;;;;;;;;;;;;;;;;;5010690;28;19932;-65
2022/06/28 13:25:01;;;;;;;;;;;;;;;;;;5010897;28;19972;-64
2022/06/28 13:27:28;;;;;;;;;;;;;;;;;;5010814;28;19932;-64
2022/06/28 13:29:54;;;;;;;;;;;;;;;;;;5010594;28;19958;-64
2022/06/28 13:32:21;;;;;;;;;;;;;;;;;;5010980;28;19980;-62
2022/06/28 13:34:48;;;;;;;;;;;;;;;;;;5010167;28;20369;-64
2022/06/28 13:37:15;;;;;;;;;;;;;;;;;;5011036;28;19948;-64
2022/06/28 13:39:43;;;;;;;;;;;;;;;;;;5010761;28;19931;-65
2022/06/28 13:42:10;;;;;;;;;;;;;;;;;;5010452;28;19941;-64
2022/06/28 13:44:36;;;;;;;;;;;;;;;;;;5011172;28;20018;-65
2022/06/28 13:47:03;;;;;;;;;;;;;;;;;;5010746;28;19925;-64
2022/06/28 13:49:30;;;;;;;;;;;;;;;;;;5010859;28;20463;-65
2022/06/28 13:51:56;;;;;;;;;;;;;;;;;;5010846;28;19929;-64
2022/06/28 13:54:23;;;;;;;;;;;;;;;;;;5012463;28;19976;-63
2022/06/28 13:56:51;;;;;;;;;;;;;;;;;;5014459;28;19926;-64
2022/06/28 13:59:19;;;;;;;;;;;;;;;;;;5014533;28;19926;-64
2022/06/28 14:01:46;;;;;;;;;;;;;;;;;;5014824;28;20378;-64
2022/06/28 14:04:13;;;;;;;;;;;;;;;;;;5014658;28;19956;-65
2022/06/28 14:06:40;;;;;;;;;;;;;;;;;;5014791;28;19936;-65
2022/06/28 14:09:06;;;;;;;;;;;;;;;;;;5014261;28;19936;-67
2022/06/28 14:11:33;;;;;;;;;;;;;;;;;;5014194;28;19933;-64
2022/06/28 14:14:01;;;;;;;;;;;;;;;;;;5014081;28;20417;-63
2022/06/28 14:16:28;;;;;;;;;;;;;;;;;;5014084;28;20563;-64
2022/06/28 14:18:54;;;;;;;;;;;;;;;;;;5014447;28;19972;-64
2022/06/28 14:21:21;;;;;;;;;;;;;;;;;;5014199;28;19925;-64
2022/06/28 14:23:48;;;;;;;;;;;;;;;;;;5014292;28;20406;-65
2022/06/28 14:26:15;;;;;;;;;;;;;;;;;;5014254;28;19931;-64
2022/06/28 14:28:42;;;;;;;;;;;;;;;;;;5013461;28;19926;-64
2022/06/28 14:31:09;;;;;;;;;;;;;;;;;;5013889;28;19926;-64
2022/06/28 14:33:36;;;;;;;;;;;;;;;;;;5014191;28;20649;-63
2022/06/28 14:36:03;;;;;;;;;;;;;;;;;;5013825;28;19996;-62
2022/06/28 14:38:29;;;;;;;;;;;;;;;;;;5014062;28;19926;-64
2022/06/28 14:40:57;;;;;;;;;;;;;;;;;;5013477;28;19937;-65
2022/06/28 14:43:24;;;;;;;;;;;;;;;;;;5013755;28;19930;-64
2022/06/28 14:45:51;;;;;;;;;;;;;;;;;;5013646;28;19925;-63
2022/06/28 14:48:19;;;;;;;;;;;;;;;;;;5013375;28;20044;-64
2022/06/28 14:50:46;;;;;;;;;;;;;;;;;;5013395;28;19933;-63
2022/06/28 14:53:12;;;;;;;;;;;;;;;;;;5012718;28;19925;-64
2022/06/28 14:55:40;;;;;;;;;;;;;;;;;;5013262;28;19933;-65
2022/06/28 14:58:07;;;;;;;;;;;;;;;;;;5013617;28;19936;-64
2022/06/28 15:00:34;;;;;;;;;;;;;;;;;;5012968;28;19925;-64
2022/06/28 15:03:01;;;;;;;;;;;;;;;;;;5013580;28;19933;-65
2022/06/28 15:05:29;;;;;;;;;;;;;;;;;;5012546;28;20430;-63
2022/06/28 15:07:56;;;;;;;;;;;;;;;;;;5013426;28;19972;-63
2022/06/28 15:10:23;;;;;;;;;;;;;;;;;;5013227;28;19930;-64
2022/06/28 15:12:49;;;;;;;;;;;;;;;;;;5013621;28;19932;-64
2022/06/28 15:15:16;;;;;;;;;;;;;;;;;;5013121;28;19926;-64
2022/06/28 15:17:42;;;;;;;;;;;;;;;;;;5013403;28;19992;-64
2022/06/28 15:20:09;;;;;;;;;;;;;;;;;;5013019;28;20330;-65
2022/06/28 15:30:55;;;;;;;;;;;;;;;;;;5012658;28;19975;-63
2022/06/28 15:33:23;;;;;;;;;;;;;;;;;;5012947;28;19925;-65
2022/06/28 15:35:51;;;;;;;;;;;;;;;;;;5012050;28;19972;-65
2022/06/28 15:38:19;;;;;;;;;;;;;;;;;;5012816;28;19935;-65
2022/06/28 15:40:46;;;;;;;;;;;;;;;;;;5012331;28;19926;-66
2022/06/28 15:43:12;;;;;;;;;;;;;;;;;;5012876;28;19930;-65
2022/06/28 15:45:39;;;;;;;;;;;;;;;;;;5012578;28;20390;-61
2022/06/28 15:48:06;;;;;;;;;;;;;;;;;;5012473;28;19925;-65
2022/06/28 15:50:33;;;;;;;;;;;;;;;;;;5012378;28;19932;-65
2022/06/28 15:52:59;;;;;;;;;;;;;;;;;;5012438;28;19975;-64
2022/06/28 15:55:27;;;;;;;;;;;;;;;;;;5012636;28;19925;-64
2022/06/28 15:57:54;;;;;;;;;;;;;;;;;;5012538;28;19937;-64
2022/06/28 16:00:21;;;;;;;;;;;;;;;;;;5011964;28;19932;-65
2022/06/28 16:02:47;;;;;;;;;;;;;;;;;;5012211;28;19930;-64
2022/06/28 16:05:14;;;;;;;;;;;;;;;;;;5012385;28;19932;-64
2022/06/28 16:07:41;;;;;;;;;;;;;;;;;;5012544;28;19995;-64
2022/06/28 16:10:08;;;;;;;;;;;;;;;;;;5011758;28;20059;-63
2022/06/28 16:12:56;;;;;;;;;;;;;;;;;;5011949;28;19933;-64
2022/06/28 16:15:23;;;;;;;;;;;;;;;;;;5012119;28;19926;-64
2022/06/28 16:17:50;;;;;;;;;;;;;;;;;;5012341;28;20421;-65
2022/06/28 16:20:17;;;;;;;;;;;;;;;;;;5012064;28;19925;-63
2022/06/28 16:22:45;;;;;;;;;;;;;;;;;;5011899;28;19933;-65
2022/06/28 16:25:12;;;;;;;;;;;;;;;;;;5012082;28;19932;-64
2022/06/28 16:27:40;;;;;;;;;;;;;;;;;;5011509;28;19926;-65
2022/06/28 16:30:07;;;;;;;;;;;;;;;;;;5011543;28;19929;-65
2022/06/28 16:32:34;;;;;;;;;;;;;;;;;;5011381;28;20012;-65
2022/06/28 16:35:00;;;;;;;;;;;;;;;;;;5011660;28;19925;-65
2022/06/28 16:37:27;;;;;;;;;;;;;;;;;;5011647;28;19929;-63
2022/06/28 16:39:54;;;;;;;;;;;;;;;;;;5011135;28;20019;-64
2022/06/28 16:42:20;;;;;;;;;;;;;;;;;;5011416;28;19933;-65
2022/06/28 16:44:51;;;;;;;;;;;;;;;;;;5011472;28;19925;-65
2022/06/28 16:47:18;;;;;;;;;;;;;;;;;;5011859;28;20449;-65
2022/06/28 16:49:44;;;;;;;;;;;;;;;;;;5011468;28;20333;-63
2022/06/28 16:52:11;;;;;;;;;;;;;;;;;;5011573;28;19992;-63
2022/06/28 16:54:40;;;;;;;;;;;;;;;;;;5011590;28;20388;-63
2022/06/28 16:57:07;;;;;;;;;;;;;;;;;;5011487;28;20298;-65
2022/06/28 16:59:33;;;;;;;;;;;;;;;;;;5011390;28;19936;-64
2022/06/28 17:02:01;;;;;;;;;;;;;;;;;;5011186;28;19925;-64
2022/06/28 17:04:28;;;;;;;;;;;;;;;;;;5011786;28;20009;-62
2022/06/28 17:09:38;;;;;;;;;;;;;;;;;;5011092;28;19975;-65
2022/06/28 17:12:05;;;;;;;;;;;;;;;;;;5010908;28;19936;-64
2022/06/28 17:14:32;;;;;;;;;;;;;;;;;;5011372;28;19925;-64
2022/06/28 17:16:59;;;;;;;;;;;;;;;;;;5010628;28;20351;-64